sensor_id;sensor_type;location;lat;lon;timestamp;P1;durP1;ratioP1;P2;durP2;ratioP2
20084;SDS011;10202;48.474;9.138;2023-07-28T00:02:01;3.30;;;2.20;;
20084;SDS011;10202;48.474;9.138;2023-07-28T00:04:35;3.72;;;2.10;;
20084;SDS011;10202;48.474;9.138;2023-07-28T00:07:02;3.50;;;2.40;;
20084;SDS011;10202;48.474;9.138;2023-07-28T00:09:30;3.72;;;2.50;;
20084;SDS011;10202;48.474;9.138;2023-07-28T00:11:57;5.10;;;2.28;;
20084;SDS011;10202;48.474;9.138;2023-07-28T00:14:23;4.22;;;2.33;;
20084;SDS011;10202;48.474;9.138;2023-07-28T00:16:53;3.00;;;1.95;;
20084;SDS011;10202;48.474;9.138;2023-07-28T00:19:23;5.82;;;2.42;;
20084;SDS011;10202;48.474;9.138;2023-07-28T00:21:49;2.80;;;2.28;;
20084;SDS011;10202;48.474;9.138;2023-07-28T00:24:15;3.40;;;2.35;;
20084;SDS011;10202;48.474;9.138;2023-07-28T00:26:44;4.13;;;2.15;;
20084;SDS011;10202;48.474;9.138;2023-07-28T00:29:10;3.78;;;2.15;;
20084;SDS011;10202;48.474;9.138;2023-07-28T00:31:36;3.00;;;2.03;;
20084;SDS011;10202;48.474;9.138;2023-07-28T00:34:01;2.78;;;1.98;;
20084;SDS011;10202;48.474;9.138;2023-07-28T00:36:32;2.20;;;2.00;;
20084;SDS011;10202;48.474;9.138;2023-07-28T00:39:00;2.17;;;1.98;;
20084;SDS011;10202;48.474;9.138;2023-07-28T00:41:26;2.17;;;1.60;;
20084;SDS011;10202;48.474;9.138;2023-07-28T00:43:58;2.50;;;2.10;;
20084;SDS011;10202;48.474;9.138;2023-07-28T00:46:26;4.93;;;1.98;;
20084;SDS011;10202;48.474;9.138;2023-07-28T00:48:54;5.45;;;1.90;;
20084;SDS011;10202;48.474;9.138;2023-07-28T00:51:22;4.10;;;2.15;;
20084;SDS011;10202;48.474;9.138;2023-07-28T00:53:48;3.65;;;2.05;;
20084;SDS011;10202;48.474;9.138;2023-07-28T00:56:14;2.58;;;1.90;;
20084;SDS011;10202;48.474;9.138;2023-07-28T00:58:40;3.63;;;2.00;;
20084;SDS011;10202;48.474;9.138;2023-07-28T01:01:05;2.20;;;1.88;;
20084;SDS011;10202;48.474;9.138;2023-07-28T01:03:31;4.13;;;1.85;;
20084;SDS011;10202;48.474;9.138;2023-07-28T01:09:19;2.03;;;1.85;;
20084;SDS011;10202;48.474;9.138;2023-07-28T01:11:57;3.10;;;2.08;;
20084;SDS011;10202;48.474;9.138;2023-07-28T01:14:24;2.35;;;2.00;;
20084;SDS011;10202;48.474;9.138;2023-07-28T01:16:50;2.28;;;2.08;;
20084;SDS011;10202;48.474;9.138;2023-07-28T01:19:16;6.70;;;2.10;;
20084;SDS011;10202;48.474;9.138;2023-07-28T01:21:43;3.03;;;2.10;;
20084;SDS011;10202;48.474;9.138;2023-07-28T01:27:16;2.78;;;2.10;;
20084;SDS011;10202;48.474;9.138;2023-07-28T01:29:42;2.55;;;1.90;;
20084;SDS011;10202;48.474;9.138;2023-07-28T01:32:10;2.38;;;2.10;;
20084;SDS011;10202;48.474;9.138;2023-07-28T01:34:36;2.35;;;1.95;;
20084;SDS011;10202;48.474;9.138;2023-07-28T01:37:01;2.47;;;1.92;;
20084;SDS011;10202;48.474;9.138;2023-07-28T01:39:27;3.78;;;2.40;;
20084;SDS011;10202;48.474;9.138;2023-07-28T01:41:55;10.18;;;2.30;;
20084;SDS011;10202;48.474;9.138;2023-07-28T01:44:20;3.03;;;1.70;;
20084;SDS011;10202;48.474;9.138;2023-07-28T01:46:48;2.78;;;1.83;;
20084;SDS011;10202;48.474;9.138;2023-07-28T01:49:14;2.28;;;1.73;;
20084;SDS011;10202;48.474;9.138;2023-07-28T01:51:39;2.25;;;2.05;;
20084;SDS011;10202;48.474;9.138;2023-07-28T01:54:10;2.10;;;1.90;;
20084;SDS011;10202;48.474;9.138;2023-07-28T01:56:38;2.90;;;2.17;;
20084;SDS011;10202;48.474;9.138;2023-07-28T01:59:03;2.17;;;1.73;;
20084;SDS011;10202;48.474;9.138;2023-07-28T02:01:31;3.03;;;2.00;;
20084;SDS011;10202;48.474;9.138;2023-07-28T02:04:00;2.70;;;1.90;;
20084;SDS011;10202;48.474;9.138;2023-07-28T02:06:26;2.38;;;2.03;;
20084;SDS011;10202;48.474;9.138;2023-07-28T02:08:57;3.58;;;2.05;;
20084;SDS011;10202;48.474;9.138;2023-07-28T02:11:27;2.05;;;1.83;;
20084;SDS011;10202;48.474;9.138;2023-07-28T02:13:55;2.20;;;2.00;;
20084;SDS011;10202;48.474;9.138;2023-07-28T02:16:23;3.72;;;1.98;;
20084;SDS011;10202;48.474;9.138;2023-07-28T02:18:54;4.35;;;2.00;;
20084;SDS011;10202;48.474;9.138;2023-07-28T02:21:20;2.22;;;2.03;;
20084;SDS011;10202;48.474;9.138;2023-07-28T02:23:45;4.30;;;2.13;;
20084;SDS011;10202;48.474;9.138;2023-07-28T02:26:13;3.13;;;2.17;;
20084;SDS011;10202;48.474;9.138;2023-07-28T02:28:41;3.05;;;1.85;;
20084;SDS011;10202;48.474;9.138;2023-07-28T02:31:11;2.58;;;2.08;;
20084;SDS011;10202;48.474;9.138;2023-07-28T02:33:39;2.28;;;1.65;;
20084;SDS011;10202;48.474;9.138;2023-07-28T02:36:07;3.33;;;2.00;;
20084;SDS011;10202;48.474;9.138;2023-07-28T02:38:35;2.08;;;1.88;;
20084;SDS011;10202;48.474;9.138;2023-07-28T02:41:03;2.50;;;2.08;;
20084;SDS011;10202;48.474;9.138;2023-07-28T02:43:29;3.10;;;1.95;;
20084;SDS011;10202;48.474;9.138;2023-07-28T02:45:55;3.00;;;2.00;;
20084;SDS011;10202;48.474;9.138;2023-07-28T02:48:22;4.38;;;2.00;;
20084;SDS011;10202;48.474;9.138;2023-07-28T02:50:53;6.10;;;2.15;;
20084;SDS011;10202;48.474;9.138;2023-07-28T02:53:21;7.10;;;2.03;;
20084;SDS011;10202;48.474;9.138;2023-07-28T02:55:51;4.68;;;1.92;;
20084;SDS011;10202;48.474;9.138;2023-07-28T02:58:21;2.22;;;2.03;;
20084;SDS011;10202;48.474;9.138;2023-07-28T03:00:52;2.20;;;1.98;;
20084;SDS011;10202;48.474;9.138;2023-07-28T03:03:28;2.25;;;1.92;;
20084;SDS011;10202;48.474;9.138;2023-07-28T03:05:56;3.60;;;2.10;;
20084;SDS011;10202;48.474;9.138;2023-07-28T03:08:24;3.65;;;2.00;;
20084;SDS011;10202;48.474;9.138;2023-07-28T03:10:59;3.78;;;2.15;;
20084;SDS011;10202;48.474;9.138;2023-07-28T03:13:27;7.00;;;2.60;;
20084;SDS011;10202;48.474;9.138;2023-07-28T03:15:56;3.10;;;2.28;;
20084;SDS011;10202;48.474;9.138;2023-07-28T03:18:26;3.63;;;2.13;;
20084;SDS011;10202;48.474;9.138;2023-07-28T03:20:51;3.83;;;1.95;;
20084;SDS011;10202;48.474;9.138;2023-07-28T03:23:22;3.70;;;2.25;;
20084;SDS011;10202;48.474;9.138;2023-07-28T03:25:50;3.13;;;2.20;;
20084;SDS011;10202;48.474;9.138;2023-07-28T03:28:18;4.05;;;2.22;;
20084;SDS011;10202;48.474;9.138;2023-07-28T03:30:47;2.75;;;2.28;;
20084;SDS011;10202;48.474;9.138;2023-07-28T03:33:17;7.55;;;2.40;;
20084;SDS011;10202;48.474;9.138;2023-07-28T03:35:42;3.75;;;2.40;;
20084;SDS011;10202;48.474;9.138;2023-07-28T03:38:09;2.70;;;1.88;;
20084;SDS011;10202;48.474;9.138;2023-07-28T03:40:37;3.20;;;2.17;;
20084;SDS011;10202;48.474;9.138;2023-07-28T03:43:03;5.00;;;2.35;;
20084;SDS011;10202;48.474;9.138;2023-07-28T03:45:29;4.82;;;2.60;;
20084;SDS011;10202;48.474;9.138;2023-07-28T03:47:56;2.28;;;1.92;;
20084;SDS011;10202;48.474;9.138;2023-07-28T03:50:22;2.58;;;2.00;;
20084;SDS011;10202;48.474;9.138;2023-07-28T03:52:54;5.90;;;1.90;;
20084;SDS011;10202;48.474;9.138;2023-07-28T03:55:20;1.95;;;1.80;;
20084;SDS011;10202;48.474;9.138;2023-07-28T03:57:45;4.72;;;2.00;;
20084;SDS011;10202;48.474;9.138;2023-07-28T04:00:11;2.67;;;2.20;;
20084;SDS011;10202;48.474;9.138;2023-07-28T04:02:40;3.63;;;2.05;;
20084;SDS011;10202;48.474;9.138;2023-07-28T04:05:08;3.50;;;2.33;;
20084;SDS011;10202;48.474;9.138;2023-07-28T04:07:34;2.90;;;2.10;;
20084;SDS011;10202;48.474;9.138;2023-07-28T04:09:59;5.72;;;2.17;;
20084;SDS011;10202;48.474;9.138;2023-07-28T04:12:25;5.32;;;2.25;;
20084;SDS011;10202;48.474;9.138;2023-07-28T04:14:50;4.13;;;2.28;;
20084;SDS011;10202;48.474;9.138;2023-07-28T04:17:16;5.10;;;2.30;;
20084;SDS011;10202;48.474;9.138;2023-07-28T04:19:43;2.47;;;2.08;;
20084;SDS011;10202;48.474;9.138;2023-07-28T04:22:11;2.97;;;2.15;;
20084;SDS011;10202;48.474;9.138;2023-07-28T04:24:44;2.55;;;2.35;;
20084;SDS011;10202;48.474;9.138;2023-07-28T04:27:09;2.53;;;2.10;;
20084;SDS011;10202;48.474;9.138;2023-07-28T04:29:35;6.05;;;2.00;;
20084;SDS011;10202;48.474;9.138;2023-07-28T04:32:00;2.10;;;1.90;;
20084;SDS011;10202;48.474;9.138;2023-07-28T04:34:35;2.38;;;1.98;;
20084;SDS011;10202;48.474;9.138;2023-07-28T04:37:10;2.22;;;2.03;;
20084;SDS011;10202;48.474;9.138;2023-07-28T04:39:57;2.45;;;2.05;;
20084;SDS011;10202;48.474;9.138;2023-07-28T04:42:31;2.20;;;2.00;;
20084;SDS011;10202;48.474;9.138;2023-07-28T04:44:59;3.60;;;2.75;;
20084;SDS011;10202;48.474;9.138;2023-07-28T04:47:29;2.92;;;2.28;;
20084;SDS011;10202;48.474;9.138;2023-07-28T04:49:57;3.53;;;2.08;;
20084;SDS011;10202;48.474;9.138;2023-07-28T04:52:44;2.38;;;2.17;;
20084;SDS011;10202;48.474;9.138;2023-07-28T04:55:35;2.30;;;2.10;;
20084;SDS011;10202;48.474;9.138;2023-07-28T04:58:01;3.40;;;2.03;;
20084;SDS011;10202;48.474;9.138;2023-07-28T05:00:37;2.10;;;1.90;;
20084;SDS011;10202;48.474;9.138;2023-07-28T05:03:05;3.97;;;2.00;;
20084;SDS011;10202;48.474;9.138;2023-07-28T05:05:37;2.63;;;2.03;;
20084;SDS011;10202;48.474;9.138;2023-07-28T05:08:07;3.92;;;2.10;;
20084;SDS011;10202;48.474;9.138;2023-07-28T05:10:35;2.50;;;2.30;;
20084;SDS011;10202;48.474;9.138;2023-07-28T05:13:02;3.35;;;2.30;;
20084;SDS011;10202;48.474;9.138;2023-07-28T05:15:33;2.47;;;2.28;;
20084;SDS011;10202;48.474;9.138;2023-07-28T05:17:59;4.35;;;2.13;;
20084;SDS011;10202;48.474;9.138;2023-07-28T05:20:37;3.97;;;2.30;;
20084;SDS011;10202;48.474;9.138;2023-07-28T05:23:13;2.30;;;2.10;;
20084;SDS011;10202;48.474;9.138;2023-07-28T05:25:39;4.85;;;2.50;;
20084;SDS011;10202;48.474;9.138;2023-07-28T05:28:04;3.08;;;2.30;;
20084;SDS011;10202;48.474;9.138;2023-07-28T05:30:32;3.03;;;2.55;;
20084;SDS011;10202;48.474;9.138;2023-07-28T05:33:00;5.43;;;2.88;;
20084;SDS011;10202;48.474;9.138;2023-07-28T05:35:32;3.15;;;2.45;;
20084;SDS011;10202;48.474;9.138;2023-07-28T05:38:00;4.40;;;2.63;;
20084;SDS011;10202;48.474;9.138;2023-07-28T05:40:33;3.65;;;2.20;;
20084;SDS011;10202;48.474;9.138;2023-07-28T05:43:04;10.20;;;2.50;;
20084;SDS011;10202;48.474;9.138;2023-07-28T05:45:30;2.40;;;2.10;;
20084;SDS011;10202;48.474;9.138;2023-07-28T05:47:58;4.85;;;2.45;;
20084;SDS011;10202;48.474;9.138;2023-07-28T05:50:24;4.32;;;2.53;;
20084;SDS011;10202;48.474;9.138;2023-07-28T05:52:49;4.18;;;2.45;;
20084;SDS011;10202;48.474;9.138;2023-07-28T05:55:15;2.83;;;2.45;;
20084;SDS011;10202;48.474;9.138;2023-07-28T05:57:40;4.00;;;2.60;;
20084;SDS011;10202;48.474;9.138;2023-07-28T06:00:08;2.85;;;2.40;;
20084;SDS011;10202;48.474;9.138;2023-07-28T06:02:41;2.97;;;2.40;;
20084;SDS011;10202;48.474;9.138;2023-07-28T06:05:11;3.25;;;2.40;;
20084;SDS011;10202;48.474;9.138;2023-07-28T06:07:39;2.97;;;2.38;;
20084;SDS011;10202;48.474;9.138;2023-07-28T06:10:04;3.33;;;2.45;;
20084;SDS011;10202;48.474;9.138;2023-07-28T06:12:33;3.42;;;2.28;;
20084;SDS011;10202;48.474;9.138;2023-07-28T06:14:58;6.20;;;2.80;;
20084;SDS011;10202;48.474;9.138;2023-07-28T06:17:24;5.32;;;2.95;;
20084;SDS011;10202;48.474;9.138;2023-07-28T06:19:52;4.55;;;2.40;;
20084;SDS011;10202;48.474;9.138;2023-07-28T06:22:17;2.90;;;2.60;;
20084;SDS011;10202;48.474;9.138;2023-07-28T06:24:45;3.70;;;2.22;;
20084;SDS011;10202;48.474;9.138;2023-07-28T06:27:11;3.35;;;2.42;;
20084;SDS011;10202;48.474;9.138;2023-07-28T06:29:39;3.60;;;2.97;;
20084;SDS011;10202;48.474;9.138;2023-07-28T06:32:07;3.33;;;2.63;;
20084;SDS011;10202;48.474;9.138;2023-07-28T06:34:34;6.28;;;3.03;;
20084;SDS011;10202;48.474;9.138;2023-07-28T06:36:59;3.88;;;3.03;;
20084;SDS011;10202;48.474;9.138;2023-07-28T06:39:25;4.80;;;3.25;;
20084;SDS011;10202;48.474;9.138;2023-07-28T06:41:55;27.42;;;3.97;;
20084;SDS011;10202;48.474;9.138;2023-07-28T06:44:21;15.10;;;3.30;;
20084;SDS011;10202;48.474;9.138;2023-07-28T06:46:46;5.78;;;3.47;;
20084;SDS011;10202;48.474;9.138;2023-07-28T06:49:16;6.72;;;3.47;;
20084;SDS011;10202;48.474;9.138;2023-07-28T06:51:42;16.33;;;4.53;;
20084;SDS011;10202;48.474;9.138;2023-07-28T06:54:12;5.20;;;3.40;;
20084;SDS011;10202;48.474;9.138;2023-07-28T06:56:41;6.00;;;3.20;;
20084;SDS011;10202;48.474;9.138;2023-07-28T06:59:11;3.90;;;3.30;;
20084;SDS011;10202;48.474;9.138;2023-07-28T07:01:37;5.68;;;3.50;;
20084;SDS011;10202;48.474;9.138;2023-07-28T07:04:05;3.30;;;2.75;;
20084;SDS011;10202;48.474;9.138;2023-07-28T07:06:31;4.30;;;3.03;;
20084;SDS011;10202;48.474;9.138;2023-07-28T07:08:59;4.70;;;2.83;;
20084;SDS011;10202;48.474;9.138;2023-07-28T07:11:27;7.05;;;2.75;;
20084;SDS011;10202;48.474;9.138;2023-07-28T07:13:53;5.03;;;2.88;;
20084;SDS011;10202;48.474;9.138;2023-07-28T07:16:20;3.28;;;2.20;;
20084;SDS011;10202;48.474;9.138;2023-07-28T07:18:46;3.50;;;2.33;;
20084;SDS011;10202;48.474;9.138;2023-07-28T07:21:14;3.80;;;2.67;;
20084;SDS011;10202;48.474;9.138;2023-07-28T07:23:42;3.75;;;2.63;;
20084;SDS011;10202;48.474;9.138;2023-07-28T07:26:24;5.97;;;2.63;;
20084;SDS011;10202;48.474;9.138;2023-07-28T07:28:49;4.20;;;2.65;;
20084;SDS011;10202;48.474;9.138;2023-07-28T07:31:15;4.80;;;2.53;;
20084;SDS011;10202;48.474;9.138;2023-07-28T07:33:43;3.05;;;2.50;;
20084;SDS011;10202;48.474;9.138;2023-07-28T07:36:17;4.50;;;2.28;;
20084;SDS011;10202;48.474;9.138;2023-07-28T07:38:47;4.40;;;2.58;;
20084;SDS011;10202;48.474;9.138;2023-07-28T07:41:14;3.13;;;2.45;;
20084;SDS011;10202;48.474;9.138;2023-07-28T07:43:48;2.47;;;2.13;;
20084;SDS011;10202;48.474;9.138;2023-07-28T07:46:18;2.33;;;2.10;;
20084;SDS011;10202;48.474;9.138;2023-07-28T07:48:53;4.68;;;2.15;;
20084;SDS011;10202;48.474;9.138;2023-07-28T07:51:18;3.63;;;2.33;;
20084;SDS011;10202;48.474;9.138;2023-07-28T07:53:45;3.30;;;2.67;;
20084;SDS011;10202;48.474;9.138;2023-07-28T07:56:13;2.95;;;2.10;;
20084;SDS011;10202;48.474;9.138;2023-07-28T07:58:39;4.13;;;2.72;;
20084;SDS011;10202;48.474;9.138;2023-07-28T08:01:05;5.53;;;2.30;;
20084;SDS011;10202;48.474;9.138;2023-07-28T08:03:35;5.57;;;2.60;;
20084;SDS011;10202;48.474;9.138;2023-07-28T08:06:07;5.22;;;2.85;;
20084;SDS011;10202;48.474;9.138;2023-07-28T08:08:35;2.63;;;2.33;;
20084;SDS011;10202;48.474;9.138;2023-07-28T08:11:02;4.07;;;2.25;;
20084;SDS011;10202;48.474;9.138;2023-07-28T08:13:30;3.20;;;2.22;;
20084;SDS011;10202;48.474;9.138;2023-07-28T08:16:00;3.70;;;2.13;;
20084;SDS011;10202;48.474;9.138;2023-07-28T08:18:26;4.22;;;2.08;;
20084;SDS011;10202;48.474;9.138;2023-07-28T08:20:59;2.45;;;2.25;;
20084;SDS011;10202;48.474;9.138;2023-07-28T08:23:27;4.63;;;2.20;;
20084;SDS011;10202;48.474;9.138;2023-07-28T08:25:55;2.35;;;2.15;;
20084;SDS011;10202;48.474;9.138;2023-07-28T08:28:20;3.08;;;2.30;;
20084;SDS011;10202;48.474;9.138;2023-07-28T08:30:57;4.78;;;2.20;;
20084;SDS011;10202;48.474;9.138;2023-07-28T08:33:25;2.95;;;1.90;;
20084;SDS011;10202;48.474;9.138;2023-07-28T08:35:53;2.42;;;1.83;;
20084;SDS011;10202;48.474;9.138;2023-07-28T08:38:20;3.53;;;2.25;;
20084;SDS011;10202;48.474;9.138;2023-07-28T08:40:46;4.72;;;1.90;;
20084;SDS011;10202;48.474;9.138;2023-07-28T08:43:12;2.33;;;1.98;;
20084;SDS011;10202;48.474;9.138;2023-07-28T08:45:42;2.75;;;2.28;;
20084;SDS011;10202;48.474;9.138;2023-07-28T08:48:10;4.80;;;1.90;;
20084;SDS011;10202;48.474;9.138;2023-07-28T08:50:38;2.10;;;1.90;;
20084;SDS011;10202;48.474;9.138;2023-07-28T08:53:04;2.58;;;2.38;;
20084;SDS011;10202;48.474;9.138;2023-07-28T08:55:32;2.65;;;2.22;;
20084;SDS011;10202;48.474;9.138;2023-07-28T08:58:13;2.05;;;1.90;;
20084;SDS011;10202;48.474;9.138;2023-07-28T09:00:46;2.80;;;2.22;;
20084;SDS011;10202;48.474;9.138;2023-07-28T09:03:18;1.77;;;1.60;;
20084;SDS011;10202;48.474;9.138;2023-07-28T09:05:44;2.42;;;2.00;;
20084;SDS011;10202;48.474;9.138;2023-07-28T09:08:15;2.50;;;1.95;;
20084;SDS011;10202;48.474;9.138;2023-07-28T09:13:09;3.00;;;2.15;;
20084;SDS011;10202;48.474;9.138;2023-07-28T09:15:38;3.08;;;2.20;;
20084;SDS011;10202;48.474;9.138;2023-07-28T09:18:09;2.88;;;2.17;;
20084;SDS011;10202;48.474;9.138;2023-07-28T09:20:41;3.13;;;2.35;;
20084;SDS011;10202;48.474;9.138;2023-07-28T09:23:09;2.45;;;1.88;;
20084;SDS011;10202;48.474;9.138;2023-07-28T09:25:38;2.97;;;2.40;;
20084;SDS011;10202;48.474;9.138;2023-07-28T09:28:04;3.33;;;2.10;;
20084;SDS011;10202;48.474;9.138;2023-07-28T09:30:48;4.25;;;2.25;;
20084;SDS011;10202;48.474;9.138;2023-07-28T09:33:36;6.88;;;2.10;;
20084;SDS011;10202;48.474;9.138;2023-07-28T09:36:11;2.67;;;2.30;;
20084;SDS011;10202;48.474;9.138;2023-07-28T09:38:50;2.15;;;1.90;;
20084;SDS011;10202;48.474;9.138;2023-07-28T09:41:19;2.58;;;2.00;;
20084;SDS011;10202;48.474;9.138;2023-07-28T09:43:48;4.78;;;2.03;;
20084;SDS011;10202;48.474;9.138;2023-07-28T09:46:18;2.90;;;2.22;;
20084;SDS011;10202;48.474;9.138;2023-07-28T09:48:45;2.50;;;2.22;;
20084;SDS011;10202;48.474;9.138;2023-07-28T09:51:20;2.35;;;2.00;;
20084;SDS011;10202;48.474;9.138;2023-07-28T09:53:48;2.75;;;2.42;;
20084;SDS011;10202;48.474;9.138;2023-07-28T09:56:18;6.18;;;3.50;;
20084;SDS011;10202;48.474;9.138;2023-07-28T09:58:48;3.92;;;2.65;;
20084;SDS011;10202;48.474;9.138;2023-07-28T10:01:20;5.80;;;3.35;;
20084;SDS011;10202;48.474;9.138;2023-07-28T10:03:49;10.20;;;5.20;;
20084;SDS011;10202;48.474;9.138;2023-07-28T10:06:18;6.70;;;3.72;;
20084;SDS011;10202;48.474;9.138;2023-07-28T10:08:45;4.38;;;2.88;;
20084;SDS011;10202;48.474;9.138;2023-07-28T10:11:14;6.95;;;3.90;;
20084;SDS011;10202;48.474;9.138;2023-07-28T10:13:44;4.85;;;2.90;;
20084;SDS011;10202;48.474;9.138;2023-07-28T10:16:15;4.68;;;2.55;;
20084;SDS011;10202;48.474;9.138;2023-07-28T10:18:41;2.85;;;2.22;;
20084;SDS011;10202;48.474;9.138;2023-07-28T10:21:10;3.35;;;2.17;;
20084;SDS011;10202;48.474;9.138;2023-07-28T10:23:45;7.00;;;2.10;;
20084;SDS011;10202;48.474;9.138;2023-07-28T10:26:38;5.72;;;2.20;;
20084;SDS011;10202;48.474;9.138;2023-07-28T10:29:15;4.28;;;2.30;;
20084;SDS011;10202;48.474;9.138;2023-07-28T10:31:49;2.45;;;1.77;;
20084;SDS011;10202;48.474;9.138;2023-07-28T10:34:24;5.63;;;2.30;;
20084;SDS011;10202;48.474;9.138;2023-07-28T10:36:56;2.90;;;2.33;;
20084;SDS011;10202;48.474;9.138;2023-07-28T10:39:27;3.53;;;2.28;;
20084;SDS011;10202;48.474;9.138;2023-07-28T10:42:05;3.97;;;2.35;;
20084;SDS011;10202;48.474;9.138;2023-07-28T10:44:33;4.97;;;2.47;;
20084;SDS011;10202;48.474;9.138;2023-07-28T10:47:02;3.42;;;2.40;;
20084;SDS011;10202;48.474;9.138;2023-07-28T10:49:36;5.43;;;2.50;;
20084;SDS011;10202;48.474;9.138;2023-07-28T10:52:06;2.35;;;2.05;;
20084;SDS011;10202;48.474;9.138;2023-07-28T10:54:33;2.90;;;2.20;;
20084;SDS011;10202;48.474;9.138;2023-07-28T10:57:04;2.65;;;1.83;;
20084;SDS011;10202;48.474;9.138;2023-07-28T10:59:30;4.43;;;2.60;;
20084;SDS011;10202;48.474;9.138;2023-07-28T11:01:58;3.83;;;2.05;;
20084;SDS011;10202;48.474;9.138;2023-07-28T11:04:26;3.60;;;2.20;;
20084;SDS011;10202;48.474;9.138;2023-07-28T11:06:53;9.55;;;2.20;;
20084;SDS011;10202;48.474;9.138;2023-07-28T11:09:22;2.75;;;2.28;;
20084;SDS011;10202;48.474;9.138;2023-07-28T11:11:53;2.80;;;2.20;;
20084;SDS011;10202;48.474;9.138;2023-07-28T11:14:21;2.22;;;1.98;;
20084;SDS011;10202;48.474;9.138;2023-07-28T11:16:50;4.05;;;2.10;;
20084;SDS011;10202;48.474;9.138;2023-07-28T11:19:16;3.00;;;1.95;;
20084;SDS011;10202;48.474;9.138;2023-07-28T11:21:47;6.50;;;2.08;;
20084;SDS011;10202;48.474;9.138;2023-07-28T11:24:20;4.10;;;2.33;;
20084;SDS011;10202;48.474;9.138;2023-07-28T11:26:51;3.08;;;2.15;;
20084;SDS011;10202;48.474;9.138;2023-07-28T11:29:20;3.42;;;2.03;;
20084;SDS011;10202;48.474;9.138;2023-07-28T11:31:51;6.43;;;2.00;;
20084;SDS011;10202;48.474;9.138;2023-07-28T11:34:26;2.10;;;1.90;;
20084;SDS011;10202;48.474;9.138;2023-07-28T11:36:57;5.83;;;2.40;;
20084;SDS011;10202;48.474;9.138;2023-07-28T11:39:25;2.20;;;2.00;;
20084;SDS011;10202;48.474;9.138;2023-07-28T11:41:57;2.28;;;1.92;;
20084;SDS011;10202;48.474;9.138;2023-07-28T11:44:23;2.63;;;2.00;;
20084;SDS011;10202;48.474;9.138;2023-07-28T11:46:51;3.45;;;2.28;;
20084;SDS011;10202;48.474;9.138;2023-07-28T11:49:22;2.70;;;2.30;;
20084;SDS011;10202;48.474;9.138;2023-07-28T11:51:50;4.90;;;2.08;;
20084;SDS011;10202;48.474;9.138;2023-07-28T11:54:21;3.58;;;2.22;;
20084;SDS011;10202;48.474;9.138;2023-07-28T11:56:51;3.78;;;2.22;;
20084;SDS011;10202;48.474;9.138;2023-07-28T11:59:20;4.05;;;1.95;;
20084;SDS011;10202;48.474;9.138;2023-07-28T12:01:53;4.05;;;2.30;;
20084;SDS011;10202;48.474;9.138;2023-07-28T12:04:36;3.65;;;2.22;;
20084;SDS011;10202;48.474;9.138;2023-07-28T12:07:05;2.10;;;1.90;;
20084;SDS011;10202;48.474;9.138;2023-07-28T12:12:27;2.40;;;2.08;;
20084;SDS011;10202;48.474;9.138;2023-07-28T12:14:55;2.40;;;2.00;;
20084;SDS011;10202;48.474;9.138;2023-07-28T12:17:24;2.90;;;2.30;;
20084;SDS011;10202;48.474;9.138;2023-07-28T12:22:40;3.70;;;2.20;;
20084;SDS011;10202;48.474;9.138;2023-07-28T12:25:09;2.45;;;2.00;;
20084;SDS011;10202;48.474;9.138;2023-07-28T12:27:36;3.25;;;2.08;;
20084;SDS011;10202;48.474;9.138;2023-07-28T12:30:03;5.82;;;2.17;;
20084;SDS011;10202;48.474;9.138;2023-07-28T12:32:29;3.70;;;2.20;;
20084;SDS011;10202;48.474;9.138;2023-07-28T12:34:57;2.47;;;2.05;;
20084;SDS011;10202;48.474;9.138;2023-07-28T12:37:25;3.33;;;2.10;;
20084;SDS011;10202;48.474;9.138;2023-07-28T12:39:54;3.92;;;2.28;;
20084;SDS011;10202;48.474;9.138;2023-07-28T12:42:19;6.57;;;2.38;;
20084;SDS011;10202;48.474;9.138;2023-07-28T12:44:45;2.03;;;1.83;;
20084;SDS011;10202;48.474;9.138;2023-07-28T12:47:11;2.90;;;2.00;;
20084;SDS011;10202;48.474;9.138;2023-07-28T12:49:38;3.85;;;2.15;;
20084;SDS011;10202;48.474;9.138;2023-07-28T12:52:07;2.40;;;2.20;;
20084;SDS011;10202;48.474;9.138;2023-07-28T12:54:37;2.55;;;2.35;;
20084;SDS011;10202;48.474;9.138;2023-07-28T12:57:04;6.05;;;2.47;;
20084;SDS011;10202;48.474;9.138;2023-07-28T12:59:34;6.65;;;3.13;;
20084;SDS011;10202;48.474;9.138;2023-07-28T13:02:07;4.28;;;3.40;;
20084;SDS011;10202;48.474;9.138;2023-07-28T13:04:37;4.82;;;3.25;;
20084;SDS011;10202;48.474;9.138;2023-07-28T13:07:05;4.28;;;2.60;;
20084;SDS011;10202;48.474;9.138;2023-07-28T13:09:33;2.92;;;2.50;;
20084;SDS011;10202;48.474;9.138;2023-07-28T13:12:03;3.17;;;2.30;;
20084;SDS011;10202;48.474;9.138;2023-07-28T13:14:31;3.22;;;2.15;;
20084;SDS011;10202;48.474;9.138;2023-07-28T13:17:06;2.42;;;1.92;;
20084;SDS011;10202;48.474;9.138;2023-07-28T13:19:35;2.50;;;2.30;;
20084;SDS011;10202;48.474;9.138;2023-07-28T13:22:02;3.35;;;2.58;;
20084;SDS011;10202;48.474;9.138;2023-07-28T13:24:34;2.83;;;2.13;;
20084;SDS011;10202;48.474;9.138;2023-07-28T13:27:05;3.72;;;2.25;;
20084;SDS011;10202;48.474;9.138;2023-07-28T13:29:33;3.03;;;2.25;;
20084;SDS011;10202;48.474;9.138;2023-07-28T13:32:03;2.28;;;2.08;;
20084;SDS011;10202;48.474;9.138;2023-07-28T13:34:33;3.47;;;2.40;;
20084;SDS011;10202;48.474;9.138;2023-07-28T13:36:59;2.53;;;2.08;;
20084;SDS011;10202;48.474;9.138;2023-07-28T13:39:24;2.72;;;2.20;;
20084;SDS011;10202;48.474;9.138;2023-07-28T13:41:52;2.70;;;2.38;;
20084;SDS011;10202;48.474;9.138;2023-07-28T13:44:20;2.60;;;2.33;;
20084;SDS011;10202;48.474;9.138;2023-07-28T13:46:46;3.63;;;2.38;;
20084;SDS011;10202;48.474;9.138;2023-07-28T13:49:11;3.40;;;2.28;;
20084;SDS011;10202;48.474;9.138;2023-07-28T13:51:41;2.75;;;2.50;;
20084;SDS011;10202;48.474;9.138;2023-07-28T13:54:10;2.70;;;2.30;;
20084;SDS011;10202;48.474;9.138;2023-07-28T13:56:38;2.45;;;2.15;;
20084;SDS011;10202;48.474;9.138;2023-07-28T13:59:04;2.80;;;2.30;;
20084;SDS011;10202;48.474;9.138;2023-07-28T14:01:30;2.55;;;2.30;;
20084;SDS011;10202;48.474;9.138;2023-07-28T14:04:00;3.78;;;2.30;;
20084;SDS011;10202;48.474;9.138;2023-07-28T14:06:28;2.97;;;2.33;;
20084;SDS011;10202;48.474;9.138;2023-07-28T14:08:59;2.97;;;2.42;;
20084;SDS011;10202;48.474;9.138;2023-07-28T14:11:25;4.97;;;2.58;;
20084;SDS011;10202;48.474;9.138;2023-07-28T14:13:55;3.03;;;2.22;;
20084;SDS011;10202;48.474;9.138;2023-07-28T14:16:23;3.75;;;2.20;;
20084;SDS011;10202;48.474;9.138;2023-07-28T14:18:51;2.17;;;1.98;;
20084;SDS011;10202;48.474;9.138;2023-07-28T14:21:19;3.58;;;2.13;;
20084;SDS011;10202;48.474;9.138;2023-07-28T14:23:45;3.10;;;2.35;;
20084;SDS011;10202;48.474;9.138;2023-07-28T14:26:15;3.05;;;2.35;;
20084;SDS011;10202;48.474;9.138;2023-07-28T14:28:43;2.58;;;2.13;;
20084;SDS011;10202;48.474;9.138;2023-07-28T14:31:09;3.03;;;2.30;;
20084;SDS011;10202;48.474;9.138;2023-07-28T14:33:36;3.28;;;2.08;;
20084;SDS011;10202;48.474;9.138;2023-07-28T14:36:02;4.40;;;2.20;;
20084;SDS011;10202;48.474;9.138;2023-07-28T14:38:28;2.88;;;2.35;;
20084;SDS011;10202;48.474;9.138;2023-07-28T14:40:56;4.03;;;2.33;;
20084;SDS011;10202;48.474;9.138;2023-07-28T14:43:26;2.50;;;2.13;;
20084;SDS011;10202;48.474;9.138;2023-07-28T14:45:51;3.67;;;2.60;;
20084;SDS011;10202;48.474;9.138;2023-07-28T14:48:17;3.95;;;2.50;;
20084;SDS011;10202;48.474;9.138;2023-07-28T14:50:43;3.33;;;2.25;;
20084;SDS011;10202;48.474;9.138;2023-07-28T14:56:01;4.10;;;2.63;;
20084;SDS011;10202;48.474;9.138;2023-07-28T14:58:32;4.90;;;2.63;;
20084;SDS011;10202;48.474;9.138;2023-07-28T15:01:00;2.78;;;2.17;;
20084;SDS011;10202;48.474;9.138;2023-07-28T15:03:28;3.15;;;2.58;;
20084;SDS011;10202;48.474;9.138;2023-07-28T15:05:55;3.00;;;2.40;;
20084;SDS011;10202;48.474;9.138;2023-07-28T15:08:23;3.85;;;3.03;;
20084;SDS011;10202;48.474;9.138;2023-07-28T15:10:49;3.03;;;2.72;;
20084;SDS011;10202;48.474;9.138;2023-07-28T15:13:15;6.28;;;3.03;;
20084;SDS011;10202;48.474;9.138;2023-07-28T15:15:42;5.05;;;2.47;;